createdAt,value
2023-01-22T00:02:12.645Z,102363.33
2023-01-22T00:04:40.802Z,102364.89
2023-01-22T00:07:08.923Z,102369.45
2023-01-22T00:09:56.132Z,102367.54
2023-01-22T00:12:24.157Z,102372.05
2023-01-22T00:14:52.815Z,102371.87
2023-01-22T00:17:26.845Z,102370.66
2023-01-22T00:19:55.037Z,102372.40
2023-01-22T00:22:42.019Z,102373.02
2023-01-22T00:25:12.353Z,102375.95
2023-01-22T00:27:41.897Z,102375.24
2023-01-22T00:30:10.945Z,102377.33
2023-01-22T00:32:39.070Z,102375.47
2023-01-22T00:35:07.397Z,102379.55
2023-01-22T00:37:35.881Z,102382.98
2023-01-22T00:40:09.976Z,102380.40
2023-01-22T00:42:39.737Z,102385.92
2023-01-22T00:45:08.696Z,102384.55
2023-01-22T00:47:36.921Z,102390.73
2023-01-22T00:50:06.172Z,102388.13
2023-01-22T00:52:35.050Z,102392.37
2023-01-22T00:55:04.731Z,102390.15
2023-01-22T00:57:33.350Z,102387.63
2023-01-22T01:00:01.437Z,102389.39
2023-01-22T01:02:31.380Z,102387.68
2023-01-22T01:05:02.074Z,102386.59
2023-01-22T01:07:30.152Z,102388.11
2023-01-22T01:09:58.357Z,102390.26
2023-01-22T01:12:26.991Z,102391.26
2023-01-22T01:14:56.481Z,102391.30
2023-01-22T01:17:24.826Z,102393.34
2023-01-22T01:19:53.357Z,102391.98
2023-01-22T01:22:21.482Z,102396.46
2023-01-22T01:24:49.526Z,102396.94
2023-01-22T01:27:17.967Z,102399.61
2023-01-22T01:29:46.138Z,102399.04
2023-01-22T01:32:14.194Z,102401.27
2023-01-22T01:34:42.499Z,102400.73
2023-01-22T01:37:12.421Z,102399.48
2023-01-22T01:39:40.460Z,102397.40
2023-01-22T01:42:09.468Z,102394.59
2023-01-22T01:44:38.060Z,102398.36
2023-01-22T01:47:22.518Z,102399.41
2023-01-22T01:49:53.516Z,102399.75
2023-01-22T01:52:21.661Z,102399.10
2023-01-22T01:54:53.374Z,102398.96
2023-01-22T01:57:31.629Z,102402.94
2023-01-22T02:00:05.097Z,102401.61
2023-01-22T02:02:41.811Z,102403.19
2023-01-22T02:05:10.565Z,102402.51
2023-01-22T02:07:38.755Z,102402.48
2023-01-22T02:10:25.962Z,102407.95
2023-01-22T02:13:19.247Z,102412.02
2023-01-22T02:15:48.667Z,102410.80
2023-01-22T02:18:16.905Z,102413.85
2023-01-22T02:20:57.088Z,102411.99
2023-01-22T02:23:28.459Z,102413.07
2023-01-22T02:25:58.341Z,102411.20
2023-01-22T02:28:27.041Z,102412.79
2023-01-22T02:31:15.032Z,102414.38
2023-01-22T02:34:02.934Z,102415.79
2023-01-22T02:36:37.699Z,102415.61
2023-01-22T02:39:07.098Z,102416.80
2023-01-22T02:41:53.936Z,102415.75
2023-01-22T02:44:22.658Z,102415.60
2023-01-22T02:46:50.821Z,102415.58
2023-01-22T02:49:37.997Z,102412.32
2023-01-22T02:52:08.260Z,102409.95
2023-01-22T02:54:36.752Z,102411.87
2023-01-22T02:57:31.273Z,102415.47
2023-01-22T02:59:59.393Z,102414.38
2023-01-22T03:02:27.821Z,102414.52
2023-01-22T03:05:03.750Z,102411.67
2023-01-22T03:07:42.747Z,102413.40
2023-01-22T03:10:13.955Z,102417.40
2023-01-22T03:13:02.200Z,102414.17
2023-01-22T03:15:49.597Z,102413.61
2023-01-22T03:18:38.302Z,102413.60
2023-01-22T03:21:20.349Z,102410.56
2023-01-22T03:23:52.427Z,102412.95
2023-01-22T03:26:22.453Z,102413.66
2023-01-22T03:28:51.629Z,102417.80
2023-01-22T03:31:39.374Z,102421.20
2023-01-22T03:34:07.730Z,102417.41
2023-01-22T03:36:35.937Z,102420.63
2023-01-22T03:39:05.939Z,102418.75
2023-01-22T03:41:34.411Z,102418.81
2023-01-22T03:44:03.776Z,102417.05
2023-01-22T03:46:35.758Z,102417.73
2023-01-22T03:49:22.811Z,102421.00
2023-01-22T03:51:53.798Z,102421.94
2023-01-22T03:54:21.771Z,102420.58
2023-01-22T03:56:50.122Z,102425.58
2023-01-22T03:59:26.945Z,102421.95
2023-01-22T04:02:13.683Z,102426.17
2023-01-22T04:04:50.997Z,102425.77
2023-01-22T04:07:19.439Z,102430.64
2023-01-22T04:09:48.255Z,102434.10
2023-01-22T04:12:16.732Z,102431.15
2023-01-22T04:14:45.541Z,102436.02
2023-01-22T04:17:13.770Z,102434.98
2023-01-22T04:19:55.341Z,102431.85
2023-01-22T04:22:40.419Z,102433.16
2023-01-22T04:25:10.688Z,102438.60
2023-01-22T04:27:39.079Z,102443.02
2023-01-22T04:30:08.404Z,102443.65
2023-01-22T04:32:37.264Z,102447.83
2023-01-22T04:35:34.388Z,102445.00
2023-01-22T04:38:10.568Z,102448.16
2023-01-22T04:40:39.618Z,102451.54
2023-01-22T04:43:08.604Z,102453.42
2023-01-22T04:45:56.330Z,102451.40
2023-01-22T04:48:29.883Z,102454.20
2023-01-22T04:50:58.268Z,102459.45
2023-01-22T04:53:29.434Z,102462.90
2023-01-22T04:55:57.641Z,102465.48
2023-01-22T04:58:27.293Z,102469.04
2023-01-22T05:00:59.693Z,102469.11
2023-01-22T05:03:28.522Z,102471.55
2023-01-22T05:05:57.178Z,102473.36
2023-01-22T05:08:25.497Z,102472.91
2023-01-22T05:10:55.641Z,102477.10
2023-01-22T05:13:30.204Z,102476.11
2023-01-22T05:15:59.459Z,102478.84
2023-01-22T05:18:27.811Z,102475.44
2023-01-22T05:20:55.916Z,102476.60
2023-01-22T05:23:27.362Z,102475.57
2023-01-22T05:25:56.565Z,102477.96
2023-01-22T05:28:36.905Z,102478.10
2023-01-22T05:31:25.398Z,102484.15
2023-01-22T05:34:05.500Z,102486.48
2023-01-22T05:36:33.888Z,102487.73
2023-01-22T05:39:07.996Z,102488.64
2023-01-22T05:41:36.923Z,102488.02
2023-01-22T05:44:05.540Z,102490.20
2023-01-22T05:46:34.054Z,102488.73
2023-01-22T05:49:45.997Z,102489.89
2023-01-22T05:52:20.592Z,102493.89
2023-01-22T05:54:49.280Z,102493.16
2023-01-22T05:57:18.867Z,102496.74
2023-01-22T05:59:46.897Z,102499.77
2023-01-22T06:02:15.612Z,102504.73
2023-01-22T06:04:45.331Z,102505.96
2023-01-22T06:07:31.857Z,102509.30
2023-01-22T06:10:00.498Z,102511.83
2023-01-22T06:12:29.440Z,102514.13
2023-01-22T06:14:57.729Z,102513.36
2023-01-22T06:17:46.856Z,102520.92
2023-01-22T06:20:16.324Z,102521.43
2023-01-22T06:22:44.495Z,102526.02
2023-01-22T06:25:12.731Z,102533.09
2023-01-22T06:28:32.287Z,102537.75
2023-01-22T06:31:20.062Z,102536.91
2023-01-22T06:33:48.959Z,102540.34
2023-01-22T06:36:17.361Z,102540.59
2023-01-22T06:39:05.239Z,102549.16
2023-01-22T06:41:42.797Z,102552.00
2023-01-22T06:44:13.350Z,102554.07
2023-01-22T06:46:41.405Z,102560.20
2023-01-22T06:49:12.151Z,102564.27
2023-01-22T06:51:42.172Z,102573.78
2023-01-22T06:54:12.734Z,102574.11
2023-01-22T06:56:59.957Z,102577.60
2023-01-22T06:59:47.402Z,102578.04
2023-01-22T07:02:17.819Z,102579.27
2023-01-22T07:04:46.203Z,102582.35
2023-01-22T07:07:14.935Z,102583.93
2023-01-22T07:09:43.332Z,102585.35
2023-01-22T07:12:11.436Z,102582.36
2023-01-22T07:14:39.544Z,102584.95
2023-01-22T07:17:26.512Z,102586.86
2023-01-22T07:19:54.622Z,102589.27
2023-01-22T07:22:22.719Z,102592.08
2023-01-22T07:24:51.194Z,102594.43
2023-01-22T07:27:19.215Z,102592.95
2023-01-22T07:29:47.947Z,102597.31
2023-01-22T07:32:21.271Z,102604.17
2023-01-22T07:34:49.424Z,102608.53
2023-01-22T07:37:17.774Z,102608.48
2023-01-22T07:39:45.753Z,102610.52
2023-01-22T07:42:14.273Z,102613.18
2023-01-22T07:44:42.778Z,102617.11
2023-01-22T07:47:10.912Z,102618.86
2023-01-22T07:49:39.299Z,102624.58
2023-01-22T07:52:25.879Z,102626.66
2023-01-22T07:54:54.297Z,102633.17
2023-01-22T07:57:22.321Z,102633.34
2023-01-22T07:59:50.427Z,102638.38
2023-01-22T08:02:18.989Z,102648.30
2023-01-22T08:04:47.342Z,102653.21
2023-01-22T08:07:19.550Z,102652.90
2023-01-22T08:09:47.785Z,102653.04
2023-01-22T08:12:37.478Z,102658.03
2023-01-22T08:15:06.156Z,102664.50
2023-01-22T08:17:34.243Z,102660.23
2023-01-22T08:20:21.796Z,102662.40
2023-01-22T08:22:49.774Z,102662.83
2023-01-22T08:25:17.833Z,102666.09
2023-01-22T08:27:46.514Z,102663.56
2023-01-22T08:30:15.991Z,102665.62
2023-01-22T08:32:46.030Z,102665.52
2023-01-22T08:35:14.536Z,102665.63
2023-01-22T08:37:45.766Z,102666.29
2023-01-22T08:40:14.004Z,102666.58
2023-01-22T08:42:43.572Z,102662.69
2023-01-22T08:45:11.796Z,102666.63
2023-01-22T08:47:39.908Z,102666.00
2023-01-22T08:50:29.466Z,102669.78
2023-01-22T08:52:58.011Z,102671.59
2023-01-22T08:55:27.847Z,102670.38
2023-01-22T08:57:57.568Z,102678.02
2023-01-22T09:00:26.269Z,102676.83
2023-01-22T09:02:59.946Z,102679.21
2023-01-22T09:05:28.679Z,102677.33
2023-01-22T09:07:56.750Z,102676.41
2023-01-22T09:10:25.716Z,102678.29
2023-01-22T09:12:54.175Z,102681.91
2023-01-22T09:15:22.265Z,102685.23
2023-01-22T09:18:09.304Z,102688.06
2023-01-22T09:20:37.288Z,102688.48
2023-01-22T09:23:07.995Z,102689.14
2023-01-22T09:25:36.276Z,102688.46
2023-01-22T09:28:07.283Z,102691.62
2023-01-22T09:30:39.533Z,102692.80
2023-01-22T09:33:07.843Z,102691.67
2023-01-22T09:35:35.874Z,102693.75
2023-01-22T09:38:06.032Z,102690.98
2023-01-22T09:40:46.607Z,102692.43
2023-01-22T09:43:37.421Z,102695.77
2023-01-22T09:46:16.542Z,102699.17
2023-01-22T09:48:48.375Z,102693.80
2023-01-22T09:51:19.752Z,102694.23
2023-01-22T09:53:55.466Z,102704.40
2023-01-22T09:56:32.469Z,102703.38
2023-01-22T09:59:03.657Z,102706.08
2023-01-22T10:01:32.419Z,102703.78
2023-01-22T10:04:05.568Z,102703.61
2023-01-22T10:06:33.950Z,102710.65
2023-01-22T10:09:08.254Z,102711.55
2023-01-22T10:11:40.035Z,102712.02
2023-01-22T10:14:12.732Z,102708.69
2023-01-22T10:16:41.100Z,102709.95
2023-01-22T10:19:21.536Z,102708.70
2023-01-22T10:21:55.829Z,102708.45
2023-01-22T10:24:24.134Z,102708.98
2023-01-22T10:26:54.607Z,102705.95
2023-01-22T10:29:31.139Z,102709.81
2023-01-22T10:32:02.365Z,102713.77
2023-01-22T10:34:35.254Z,102715.98
2023-01-22T10:37:14.692Z,102711.14
2023-01-22T10:39:45.538Z,102710.00
2023-01-22T10:42:23.145Z,102712.27
2023-01-22T10:59:50.336Z,102715.52
2023-01-22T11:02:22.962Z,102714.86
2023-01-22T11:04:52.190Z,102716.20
2023-01-22T11:07:32.582Z,102712.48
2023-01-22T11:10:31.740Z,102716.91
2023-01-22T11:13:29.110Z,102716.45
2023-01-22T11:15:57.596Z,102714.38
2023-01-22T11:18:39.449Z,102712.05
2023-01-22T11:21:18.414Z,102712.34
2023-01-22T11:24:15.800Z,102710.17
2023-01-22T11:26:59.546Z,102709.10
2023-01-22T11:29:49.118Z,102711.88
2023-01-22T11:32:46.123Z,102712.38
2023-01-22T11:35:34.305Z,102710.92
2023-01-22T11:38:44.561Z,102708.30
2023-01-22T11:42:00.530Z,102708.14
2023-01-22T11:45:09.859Z,102710.55
2023-01-22T11:47:54.841Z,102714.17
2023-01-22T11:50:52.240Z,102712.63
2023-01-22T11:53:30.274Z,102710.80
2023-01-22T11:56:17.027Z,102709.77
2023-01-22T11:59:18.990Z,102708.50
2023-01-22T12:02:13.381Z,102706.72
2023-01-22T12:05:02.904Z,102703.80
2023-01-22T12:07:57.533Z,102701.14
2023-01-22T12:10:55.901Z,102702.45
2023-01-22T12:13:47.404Z,102697.73
2023-01-22T12:16:34.361Z,102700.20
2023-01-22T12:19:27.046Z,102700.06
2023-01-22T12:21:55.039Z,102699.05
2023-01-22T12:25:02.735Z,102698.32
2023-01-22T12:28:15.922Z,102695.73
2023-01-22T12:30:58.373Z,102697.86
2023-01-22T12:33:39.141Z,102695.79
2023-01-22T12:36:10.507Z,102698.44
2023-01-22T12:39:03.593Z,102698.95
2023-01-22T12:41:58.761Z,102697.98
2023-01-22T12:44:49.639Z,102695.09
2023-01-22T12:47:40.840Z,102694.45
2023-01-22T12:50:19.838Z,102695.94
2023-01-22T12:53:03.285Z,102694.18
2023-01-22T12:55:43.933Z,102691.60
2023-01-22T12:58:23.740Z,102694.58
2023-01-22T13:01:05.581Z,102695.18
2023-01-22T13:03:35.696Z,102701.45
2023-01-22T13:06:18.950Z,102701.59
2023-01-22T13:08:47.249Z,102704.36
2023-01-22T13:11:34.049Z,102707.45
2023-01-22T13:14:28.254Z,102705.85
2023-01-22T13:17:17.004Z,102708.89
2023-01-22T13:19:48.131Z,102707.17
2023-01-22T13:22:25.781Z,102709.96
2023-01-22T13:24:57.026Z,102716.14
2023-01-22T13:27:46.989Z,102719.77
2023-01-22T13:30:27.697Z,102721.92
2023-01-22T13:33:14.548Z,102723.89
2023-01-22T13:36:15.831Z,102728.91
2023-01-22T13:38:55.520Z,102729.80
2023-01-22T13:41:37.007Z,102736.42
2023-01-22T13:44:07.577Z,102731.85
2023-01-22T13:46:38.909Z,102732.48
2023-01-22T13:49:20.156Z,102731.49
2023-01-22T13:52:14.055Z,102734.14
2023-01-22T13:54:52.848Z,102735.31
2023-01-22T13:57:22.609Z,102734.13
2023-01-22T13:59:59.519Z,102736.20
2023-01-22T14:02:31.184Z,102737.65
2023-01-22T14:04:59.859Z,102737.41
2023-01-22T14:07:34.843Z,102743.08
2023-01-22T14:10:12.477Z,102743.46
2023-01-22T14:12:41.063Z,102746.25
2023-01-22T14:15:20.933Z,102743.05
2023-01-22T14:17:50.621Z,102744.73
2023-01-22T14:20:42.343Z,102749.27
2023-01-22T14:23:10.900Z,102752.01
2023-01-22T14:25:45.586Z,102751.54
2023-01-22T14:28:14.104Z,102755.05
2023-01-22T14:30:42.645Z,102758.31
2023-01-22T14:33:20.522Z,102757.85
2023-01-22T14:36:13.036Z,102758.89
2023-01-22T14:38:41.315Z,102763.61
2023-01-22T14:41:09.500Z,102761.83
2023-01-22T14:43:37.705Z,102767.63
2023-01-22T14:46:24.407Z,102765.39
2023-01-22T14:48:52.460Z,102774.05
2023-01-22T14:51:20.536Z,102769.10
2023-01-22T14:53:48.930Z,102773.90
2023-01-22T14:56:16.929Z,102775.27
2023-01-22T14:58:45.017Z,102779.27
2023-01-22T15:01:18.761Z,102775.23
2023-01-22T15:03:47.131Z,102780.70
2023-01-22T15:06:15.351Z,102788.23
2023-01-22T15:08:43.526Z,102790.65
2023-01-22T15:11:12.060Z,102789.24
2023-01-22T15:13:40.236Z,102785.25
2023-01-22T15:16:11.316Z,102790.93
2023-01-22T15:18:39.919Z,102792.68
2023-01-22T15:21:08.217Z,102795.23
2023-01-22T15:23:36.899Z,102798.74
2023-01-22T15:26:10.393Z,102800.73
2023-01-22T15:28:39.012Z,102796.59
2023-01-22T15:31:10.024Z,102792.83
2023-01-22T15:33:38.480Z,102792.15
2023-01-22T15:36:07.557Z,102794.86
2023-01-22T15:38:54.311Z,102797.44
2023-01-22T15:41:25.151Z,102799.09
2023-01-22T15:43:55.465Z,102802.34
2023-01-22T15:46:25.585Z,102803.73
2023-01-22T15:48:54.559Z,102802.61
2023-01-22T15:51:23.136Z,102800.08
2023-01-22T15:53:54.196Z,102807.27
2023-01-22T15:56:24.767Z,102810.60
2023-01-22T15:58:53.612Z,102813.77
2023-01-22T16:01:22.766Z,102816.14
2023-01-22T16:03:51.306Z,102814.56
2023-01-22T16:06:24.052Z,102816.95
2023-01-22T16:08:54.274Z,102820.86
2023-01-22T16:11:22.661Z,102821.77
2023-01-22T16:13:51.355Z,102823.92
2023-01-22T16:16:24.121Z,102830.27
2023-01-22T16:18:55.350Z,102831.52
2023-01-22T16:21:23.502Z,102832.61
2023-01-22T16:23:57.099Z,102837.71
2023-01-22T16:26:28.661Z,102838.77
2023-01-22T16:28:58.425Z,102842.23
2023-01-22T16:31:29.322Z,102841.39
2023-01-22T16:34:00.150Z,102844.41
2023-01-22T16:36:32.971Z,102844.18
2023-01-22T16:39:01.338Z,102845.51
2023-01-22T16:41:32.795Z,102851.86
2023-01-22T16:44:10.039Z,102851.65
2023-01-22T16:46:41.209Z,102854.88
2023-01-22T16:49:26.760Z,102859.30
2023-01-22T16:51:57.394Z,102858.96
2023-01-22T16:54:31.827Z,102859.05
2023-01-22T16:57:03.841Z,102862.66
2023-01-22T16:59:33.757Z,102861.13
2023-01-22T17:02:03.884Z,102867.44
2023-01-22T17:04:32.447Z,102867.52
2023-01-22T17:07:00.907Z,102864.86
2023-01-22T17:09:32.421Z,102867.45
2023-01-22T17:12:19.929Z,102871.27
2023-01-22T17:14:52.946Z,102871.97
2023-01-22T17:17:45.079Z,102871.55
2023-01-22T17:20:31.732Z,102873.92
2023-01-22T17:23:00.236Z,102868.95
2023-01-22T17:25:28.597Z,102872.46
2023-01-22T17:28:16.390Z,102875.70
2023-01-22T17:30:44.783Z,102879.30
2023-01-22T17:33:34.049Z,102885.38
2023-01-22T17:36:04.030Z,102885.29
2023-01-22T17:38:36.411Z,102888.23
2023-01-22T17:41:25.443Z,102890.83
2023-01-22T17:43:56.273Z,102895.56
2023-01-22T17:46:29.278Z,102898.11
2023-01-22T17:48:58.842Z,102899.17
2023-01-22T17:51:46.379Z,102904.25
2023-01-22T17:54:14.473Z,102906.11
2023-01-22T17:56:46.075Z,102912.25
2023-01-22T17:59:15.357Z,102913.48
2023-01-22T18:01:45.211Z,102913.77
2023-01-22T18:04:35.064Z,102918.60
2023-01-22T18:07:05.205Z,102912.05
2023-01-22T18:09:33.430Z,102918.80
2023-01-22T18:12:03.139Z,102918.23
2023-01-22T18:14:34.189Z,102924.00
2023-01-22T18:17:02.809Z,102928.54
2023-01-22T18:19:31.497Z,102933.05
2023-01-22T18:22:00.076Z,102930.73
2023-01-22T18:24:31.239Z,102934.58
2023-01-22T18:26:59.639Z,102933.52
2023-01-22T18:29:28.337Z,102931.18
2023-01-22T18:31:57.130Z,102929.70
2023-01-22T18:34:26.149Z,102933.10
2023-01-22T18:36:54.279Z,102932.92
2023-01-22T18:39:43.248Z,102941.59
2023-01-22T18:42:11.500Z,102944.13
2023-01-22T18:44:39.556Z,102944.61
2023-01-22T18:47:15.565Z,102946.64
2023-01-22T18:49:51.593Z,102945.44
2023-01-22T18:52:40.776Z,102948.45
2023-01-22T18:55:09.681Z,102949.05
2023-01-22T18:58:27.616Z,102948.20
2023-01-22T19:00:59.378Z,102949.24
2023-01-22T19:03:28.588Z,102950.11
2023-01-22T19:05:57.119Z,102951.45
2023-01-22T19:08:26.250Z,102951.74
2023-01-22T19:10:59.248Z,102951.26
2023-01-22T19:13:27.703Z,102945.15
2023-01-22T19:15:55.829Z,102945.86
2023-01-22T19:18:24.082Z,102946.47
2023-01-22T19:21:19.409Z,102949.00
2023-01-22T19:24:10.176Z,102948.39
2023-01-22T19:26:39.249Z,102949.90
2023-01-22T19:29:11.455Z,102951.55
2023-01-22T19:31:43.497Z,102949.17
2023-01-22T19:34:14.010Z,102951.84
2023-01-22T19:36:42.403Z,102955.30
2023-01-22T19:39:12.714Z,102961.30
2023-01-22T19:42:05.234Z,102963.17
2023-01-22T19:44:34.575Z,102967.11
2023-01-22T19:47:03.792Z,102968.99
2023-01-22T19:49:32.859Z,102969.80
2023-01-22T19:52:00.940Z,102972.35
2023-01-22T19:54:29.397Z,102969.73
2023-01-22T19:57:02.636Z,102970.39
2023-01-22T19:59:31.528Z,102970.88
2023-01-22T20:02:20.917Z,102972.40
2023-01-22T20:04:51.346Z,102978.04
2023-01-22T20:07:20.600Z,102976.33
2023-01-22T20:09:48.761Z,102974.83
2023-01-22T20:12:17.560Z,102979.17
2023-01-22T20:15:04.837Z,102981.34
2023-01-22T20:17:34.104Z,102977.54
2023-01-22T20:20:02.463Z,102980.61
2023-01-22T20:22:31.078Z,102977.06
2023-01-22T20:24:59.200Z,102981.58
2023-01-22T20:27:27.442Z,102983.17
2023-01-22T20:29:56.364Z,102982.13
2023-01-22T20:32:26.321Z,102985.30
2023-01-22T20:34:54.371Z,102991.21
2023-01-22T20:37:24.451Z,102986.60
2023-01-22T20:39:53.577Z,102983.22
2023-01-22T20:42:21.616Z,102986.08
2023-01-22T20:45:09.292Z,102984.48
2023-01-22T20:47:41.635Z,102983.73
2023-01-22T20:50:36.443Z,102985.90
2023-01-22T20:53:06.448Z,102982.72
2023-01-22T20:55:34.826Z,102985.83
2023-01-22T20:58:02.843Z,102985.51
2023-01-22T21:00:31.116Z,102980.16
2023-01-22T21:03:04.620Z,102986.38
2023-01-22T21:05:33.045Z,102987.14
2023-01-22T21:08:02.030Z,102987.02
2023-01-22T21:10:59.304Z,102988.46
2023-01-22T21:13:27.676Z,102992.48
2023-01-22T21:15:56.208Z,102992.17
2023-01-22T21:18:24.859Z,102997.13
2023-01-22T21:20:52.941Z,102997.80
2023-01-22T21:23:21.046Z,102999.08
2023-01-22T21:25:49.467Z,102999.81
2023-01-22T21:28:37.575Z,103002.28
2023-01-22T21:31:14.558Z,102999.91
2023-01-22T21:33:49.011Z,102999.40
2023-01-22T21:36:18.511Z,102999.08
2023-01-22T21:38:47.875Z,103001.54
2023-01-22T21:41:17.724Z,103009.75
2023-01-22T21:44:06.094Z,103008.32
2023-01-22T21:46:41.944Z,103008.48
2023-01-22T21:49:20.319Z,103009.69
2023-01-22T21:51:57.416Z,103012.27
2023-01-22T21:54:33.865Z,103012.29
2023-01-22T21:57:03.312Z,103014.67
2023-01-22T21:59:50.101Z,103018.11
2023-01-22T22:02:24.639Z,103018.80
2023-01-22T22:04:53.091Z,103021.08
2023-01-22T22:07:21.189Z,103023.13
2023-01-22T22:09:49.356Z,103024.35
2023-01-22T22:12:17.673Z,103019.19
2023-01-22T22:14:45.718Z,103017.77
2023-01-22T22:17:32.923Z,103014.19
2023-01-22T22:20:20.065Z,103014.98
2023-01-22T22:22:48.519Z,103012.14
2023-01-22T22:25:16.573Z,103009.23
2023-01-22T22:27:44.568Z,103014.06
2023-01-22T22:30:13.543Z,103016.02
2023-01-22T22:32:41.546Z,103018.33
2023-01-22T22:35:09.992Z,103012.52
2023-01-22T22:37:38.687Z,103009.42
2023-01-22T22:40:08.194Z,103006.02
2023-01-22T22:42:36.251Z,103007.81
2023-01-22T22:45:05.207Z,103009.08
2023-01-22T22:47:51.864Z,103012.52
2023-01-22T22:50:20.317Z,103018.71
2023-01-22T22:52:48.790Z,103021.82
2023-01-22T22:55:16.772Z,103023.26
2023-01-22T22:57:44.962Z,103022.02
2023-01-22T23:00:13.319Z,103025.82
2023-01-22T23:02:42.685Z,103027.41
2023-01-22T23:05:11.041Z,103028.56
2023-01-22T23:07:39.177Z,103031.40
2023-01-22T23:10:07.877Z,103030.39
2023-01-22T23:12:36.055Z,103032.61
2023-01-22T23:15:04.703Z,103033.41
2023-01-22T23:17:32.995Z,103031.83
2023-01-22T23:20:20.819Z,103032.29
2023-01-22T23:22:52.479Z,103036.77
2023-01-22T23:25:20.712Z,103040.40
2023-01-22T23:27:53.481Z,103040.60
2023-01-22T23:30:21.866Z,103040.95
2023-01-22T23:33:08.908Z,103041.60
2023-01-22T23:35:37.895Z,103044.06
2023-01-22T23:38:24.527Z,103042.17
2023-01-22T23:41:05.304Z,103038.48
2023-01-22T23:43:33.705Z,103043.40
2023-01-22T23:46:07.045Z,103047.92
2023-01-22T23:48:35.500Z,103048.48
2023-01-22T23:51:04.464Z,103049.84
2023-01-22T23:53:36.650Z,103055.33
2023-01-22T23:56:05.034Z,103054.23
2023-01-22T23:58:34.591Z,103049.71
